Down Royal, United Kingdom
Current Conditions -  °F | °C
As of 12:50 AM on Tuesday 27 Jan 2015 (Local Time) from EGAA Reporting Station
Overcast Overcast  
Wind Chill: 35°   Ceiling: 1500
Heat Index: 41°   Visibility: 6mi
Dew Point: 41°   Wind: 10mph
Humidity: 100%   Direction: 220°SW
Pressure: 30.36"   Gusts: NA
Location:  54.5°N, 6.12°W
Report Text: EGAA 270050Z 22009KT 9999 BKN015 OVC019 05/05 Q1028
Loading
Personal Weather Stations






























Interactive Weather Map New forecast layout! Learn more

10-Day Weather Forecast

Advertisements
Track Severe Weather on mobile